sensor_id;sensor_type;location;lat;lon;timestamp;P1;durP1;ratioP1;P2;durP2;ratioP2
11037;SDS011;5572;49.540;11.932;2023-07-31T00:01:31;19.83;;;17.87;;
11037;SDS011;5572;49.540;11.932;2023-07-31T00:03:57;23.50;;;21.23;;
11037;SDS011;5572;49.540;11.932;2023-07-31T00:06:24;20.93;;;18.93;;
11037;SDS011;5572;49.540;11.932;2023-07-31T00:08:50;20.33;;;18.53;;
11037;SDS011;5572;49.540;11.932;2023-07-31T00:11:18;18.17;;;16.53;;
11037;SDS011;5572;49.540;11.932;2023-07-31T00:13:45;19.57;;;17.93;;
11037;SDS011;5572;49.540;11.932;2023-07-31T00:16:11;20.60;;;18.73;;
11037;SDS011;5572;49.540;11.932;2023-07-31T00:18:38;19.90;;;18.10;;
11037;SDS011;5572;49.540;11.932;2023-07-31T00:21:04;20.10;;;18.27;;
11037;SDS011;5572;49.540;11.932;2023-07-31T00:23:31;19.63;;;17.87;;
11037;SDS011;5572;49.540;11.932;2023-07-31T00:25:57;20.17;;;18.40;;
11037;SDS011;5572;49.540;11.932;2023-07-31T00:28:25;19.60;;;17.83;;
11037;SDS011;5572;49.540;11.932;2023-07-31T00:30:53;21.00;;;19.13;;
11037;SDS011;5572;49.540;11.932;2023-07-31T00:33:20;20.33;;;18.47;;
11037;SDS011;5572;49.540;11.932;2023-07-31T00:35:48;17.23;;;15.73;;
11037;SDS011;5572;49.540;11.932;2023-07-31T00:38:15;19.43;;;17.67;;
11037;SDS011;5572;49.540;11.932;2023-07-31T00:40:41;20.97;;;19.00;;
11037;SDS011;5572;49.540;11.932;2023-07-31T00:43:07;22.13;;;20.13;;
11037;SDS011;5572;49.540;11.932;2023-07-31T00:45:35;18.13;;;16.53;;
11037;SDS011;5572;49.540;11.932;2023-07-31T00:48:02;18.33;;;16.73;;
11037;SDS011;5572;49.540;11.932;2023-07-31T00:50:31;18.80;;;17.07;;
11037;SDS011;5572;49.540;11.932;2023-07-31T00:52:59;19.13;;;17.40;;
11037;SDS011;5572;49.540;11.932;2023-07-31T00:55:25;17.87;;;16.40;;
11037;SDS011;5572;49.540;11.932;2023-07-31T00:57:52;18.57;;;17.03;;
11037;SDS011;5572;49.540;11.932;2023-07-31T01:00:20;19.33;;;17.77;;
11037;SDS011;5572;49.540;11.932;2023-07-31T01:02:49;17.97;;;16.47;;
11037;SDS011;5572;49.540;11.932;2023-07-31T01:05:17;19.73;;;18.10;;
11037;SDS011;5572;49.540;11.932;2023-07-31T01:07:49;21.30;;;19.53;;
11037;SDS011;5572;49.540;11.932;2023-07-31T01:10:23;19.90;;;18.27;;
11037;SDS011;5572;49.540;11.932;2023-07-31T01:12:52;20.30;;;18.63;;
11037;SDS011;5572;49.540;11.932;2023-07-31T01:15:20;19.63;;;18.00;;
11037;SDS011;5572;49.540;11.932;2023-07-31T01:17:48;18.67;;;17.17;;
11037;SDS011;5572;49.540;11.932;2023-07-31T01:20:17;19.20;;;17.63;;
11037;SDS011;5572;49.540;11.932;2023-07-31T01:22:52;21.43;;;19.73;;
11037;SDS011;5572;49.540;11.932;2023-07-31T01:28:27;20.47;;;18.80;;
11037;SDS011;5572;49.540;11.932;2023-07-31T01:31:00;21.17;;;19.33;;
11037;SDS011;5572;49.540;11.932;2023-07-31T01:33:28;19.53;;;17.83;;
11037;SDS011;5572;49.540;11.932;2023-07-31T01:35:55;19.23;;;17.63;;
11037;SDS011;5572;49.540;11.932;2023-07-31T01:38:23;19.70;;;18.03;;
11037;SDS011;5572;49.540;11.932;2023-07-31T01:40:50;19.40;;;17.80;;
11037;SDS011;5572;49.540;11.932;2023-07-31T01:43:19;20.47;;;18.77;;
11037;SDS011;5572;49.540;11.932;2023-07-31T01:45:46;19.33;;;17.77;;
11037;SDS011;5572;49.540;11.932;2023-07-31T01:48:12;22.67;;;20.60;;
11037;SDS011;5572;49.540;11.932;2023-07-31T01:50:39;20.37;;;18.67;;
11037;SDS011;5572;49.540;11.932;2023-07-31T01:53:05;22.50;;;20.63;;
11037;SDS011;5572;49.540;11.932;2023-07-31T01:55:32;21.50;;;19.67;;
11037;SDS011;5572;49.540;11.932;2023-07-31T01:57:58;20.10;;;18.37;;
11037;SDS011;5572;49.540;11.932;2023-07-31T02:00:26;19.00;;;17.40;;
11037;SDS011;5572;49.540;11.932;2023-07-31T02:02:53;19.53;;;17.97;;
11037;SDS011;5572;49.540;11.932;2023-07-31T02:05:19;19.37;;;17.73;;
11037;SDS011;5572;49.540;11.932;2023-07-31T02:07:46;21.13;;;19.37;;
11037;SDS011;5572;49.540;11.932;2023-07-31T02:10:12;19.43;;;17.63;;
11037;SDS011;5572;49.540;11.932;2023-07-31T02:12:39;21.53;;;19.47;;
11037;SDS011;5572;49.540;11.932;2023-07-31T02:15:06;20.87;;;19.00;;
11037;SDS011;5572;49.540;11.932;2023-07-31T02:17:34;20.87;;;18.90;;
11037;SDS011;5572;49.540;11.932;2023-07-31T02:20:01;22.07;;;20.03;;
11037;SDS011;5572;49.540;11.932;2023-07-31T02:22:28;19.77;;;18.03;;
11037;SDS011;5572;49.540;11.932;2023-07-31T02:24:54;22.07;;;20.00;;
11037;SDS011;5572;49.540;11.932;2023-07-31T02:27:21;22.53;;;20.57;;
11037;SDS011;5572;49.540;11.932;2023-07-31T02:29:49;21.00;;;19.17;;
11037;SDS011;5572;49.540;11.932;2023-07-31T02:32:15;19.47;;;17.70;;
11037;SDS011;5572;49.540;11.932;2023-07-31T02:34:43;22.57;;;20.53;;
11037;SDS011;5572;49.540;11.932;2023-07-31T02:37:10;19.97;;;18.10;;
11037;SDS011;5572;49.540;11.932;2023-07-31T02:39:36;22.13;;;20.17;;
11037;SDS011;5572;49.540;11.932;2023-07-31T02:42:03;19.90;;;18.07;;
11037;SDS011;5572;49.540;11.932;2023-07-31T02:44:30;22.07;;;20.10;;
11037;SDS011;5572;49.540;11.932;2023-07-31T02:46:57;22.03;;;20.10;;
11037;SDS011;5572;49.540;11.932;2023-07-31T02:49:24;21.00;;;19.13;;
11037;SDS011;5572;49.540;11.932;2023-07-31T02:51:51;20.13;;;18.27;;
11037;SDS011;5572;49.540;11.932;2023-07-31T02:54:18;21.53;;;19.60;;
11037;SDS011;5572;49.540;11.932;2023-07-31T02:56:46;21.17;;;19.20;;
11037;SDS011;5572;49.540;11.932;2023-07-31T02:59:13;19.97;;;18.10;;
11037;SDS011;5572;49.540;11.932;2023-07-31T03:01:39;21.67;;;19.67;;
11037;SDS011;5572;49.540;11.932;2023-07-31T03:04:06;22.47;;;20.20;;
11037;SDS011;5572;49.540;11.932;2023-07-31T03:06:33;21.83;;;19.93;;
11037;SDS011;5572;49.540;11.932;2023-07-31T03:09:01;19.73;;;18.00;;
11037;SDS011;5572;49.540;11.932;2023-07-31T03:11:27;19.60;;;17.80;;
11037;SDS011;5572;49.540;11.932;2023-07-31T03:13:54;22.47;;;20.50;;
11037;SDS011;5572;49.540;11.932;2023-07-31T03:16:21;20.90;;;19.00;;
11037;SDS011;5572;49.540;11.932;2023-07-31T03:18:47;20.70;;;18.90;;
11037;SDS011;5572;49.540;11.932;2023-07-31T03:21:14;22.77;;;20.70;;
11037;SDS011;5572;49.540;11.932;2023-07-31T03:23:40;21.00;;;19.00;;
11037;SDS011;5572;49.540;11.932;2023-07-31T03:26:10;21.13;;;19.20;;
11037;SDS011;5572;49.540;11.932;2023-07-31T03:28:36;22.50;;;20.53;;
11037;SDS011;5572;49.540;11.932;2023-07-31T03:31:03;20.80;;;18.87;;
11037;SDS011;5572;49.540;11.932;2023-07-31T03:33:30;20.13;;;18.30;;
11037;SDS011;5572;49.540;11.932;2023-07-31T03:35:56;21.27;;;19.33;;
11037;SDS011;5572;49.540;11.932;2023-07-31T03:38:23;21.00;;;19.10;;
11037;SDS011;5572;49.540;11.932;2023-07-31T03:40:50;21.73;;;19.80;;
11037;SDS011;5572;49.540;11.932;2023-07-31T03:43:17;21.47;;;19.63;;
11037;SDS011;5572;49.540;11.932;2023-07-31T03:45:44;22.03;;;19.97;;
11037;SDS011;5572;49.540;11.932;2023-07-31T03:48:11;19.77;;;18.07;;
11037;SDS011;5572;49.540;11.932;2023-07-31T03:50:38;21.60;;;19.70;;
11037;SDS011;5572;49.540;11.932;2023-07-31T03:53:04;22.43;;;20.37;;
11037;SDS011;5572;49.540;11.932;2023-07-31T03:55:31;22.63;;;20.50;;
11037;SDS011;5572;49.540;11.932;2023-07-31T03:57:57;21.97;;;19.80;;
11037;SDS011;5572;49.540;11.932;2023-07-31T04:00:26;24.27;;;21.90;;
11037;SDS011;5572;49.540;11.932;2023-07-31T04:02:53;22.00;;;19.83;;
11037;SDS011;5572;49.540;11.932;2023-07-31T04:05:20;22.37;;;20.23;;
11037;SDS011;5572;49.540;11.932;2023-07-31T04:07:46;22.43;;;20.23;;
11037;SDS011;5572;49.540;11.932;2023-07-31T04:10:13;21.57;;;19.47;;
11037;SDS011;5572;49.540;11.932;2023-07-31T04:12:40;20.53;;;18.53;;
11037;SDS011;5572;49.540;11.932;2023-07-31T04:15:06;23.40;;;21.13;;
11037;SDS011;5572;49.540;11.932;2023-07-31T04:17:35;22.00;;;19.90;;
11037;SDS011;5572;49.540;11.932;2023-07-31T04:20:01;23.63;;;21.43;;
11037;SDS011;5572;49.540;11.932;2023-07-31T04:22:28;21.30;;;19.17;;
11037;SDS011;5572;49.540;11.932;2023-07-31T04:24:55;21.73;;;19.67;;
11037;SDS011;5572;49.540;11.932;2023-07-31T04:27:21;20.23;;;18.33;;
11037;SDS011;5572;49.540;11.932;2023-07-31T04:29:48;22.30;;;20.20;;
11037;SDS011;5572;49.540;11.932;2023-07-31T04:32:14;21.93;;;19.87;;
11037;SDS011;5572;49.540;11.932;2023-07-31T04:34:43;22.23;;;20.07;;
11037;SDS011;5572;49.540;11.932;2023-07-31T04:37:09;20.90;;;18.83;;
11037;SDS011;5572;49.540;11.932;2023-07-31T04:39:36;20.80;;;18.77;;
11037;SDS011;5572;49.540;11.932;2023-07-31T04:42:03;21.50;;;19.43;;
11037;SDS011;5572;49.540;11.932;2023-07-31T04:44:29;21.20;;;19.13;;
11037;SDS011;5572;49.540;11.932;2023-07-31T04:46:56;24.10;;;21.83;;
11037;SDS011;5572;49.540;11.932;2023-07-31T04:49:23;23.90;;;21.70;;
11037;SDS011;5572;49.540;11.932;2023-07-31T04:51:51;21.30;;;19.27;;
11037;SDS011;5572;49.540;11.932;2023-07-31T04:54:17;23.40;;;21.13;;
11037;SDS011;5572;49.540;11.932;2023-07-31T04:56:44;20.80;;;18.83;;
11037;SDS011;5572;49.540;11.932;2023-07-31T04:59:10;22.73;;;20.47;;
11037;SDS011;5572;49.540;11.932;2023-07-31T05:01:37;20.33;;;18.30;;
11037;SDS011;5572;49.540;11.932;2023-07-31T05:04:03;25.70;;;23.13;;
11037;SDS011;5572;49.540;11.932;2023-07-31T05:06:30;22.17;;;20.03;;
11037;SDS011;5572;49.540;11.932;2023-07-31T05:08:58;23.80;;;21.43;;
11037;SDS011;5572;49.540;11.932;2023-07-31T05:11:25;21.57;;;19.40;;
11037;SDS011;5572;49.540;11.932;2023-07-31T05:13:51;22.83;;;20.57;;
11037;SDS011;5572;49.540;11.932;2023-07-31T05:16:18;23.53;;;21.30;;
11037;SDS011;5572;49.540;11.932;2023-07-31T05:18:45;22.57;;;20.40;;
11037;SDS011;5572;49.540;11.932;2023-07-31T05:21:11;20.73;;;18.77;;
11037;SDS011;5572;49.540;11.932;2023-07-31T05:23:38;26.43;;;23.70;;
11037;SDS011;5572;49.540;11.932;2023-07-31T05:26:06;20.33;;;18.33;;
11037;SDS011;5572;49.540;11.932;2023-07-31T05:28:34;21.17;;;19.07;;
11037;SDS011;5572;49.540;11.932;2023-07-31T05:31:01;24.43;;;22.07;;
11037;SDS011;5572;49.540;11.932;2023-07-31T05:33:29;22.50;;;20.47;;
11037;SDS011;5572;49.540;11.932;2023-07-31T05:35:56;24.77;;;22.40;;
11037;SDS011;5572;49.540;11.932;2023-07-31T05:38:22;22.60;;;20.50;;
11037;SDS011;5572;49.540;11.932;2023-07-31T05:40:49;23.60;;;21.37;;
11037;SDS011;5572;49.540;11.932;2023-07-31T05:43:17;21.80;;;19.67;;
11037;SDS011;5572;49.540;11.932;2023-07-31T05:45:43;344.87;;;108.73;;
11037;SDS011;5572;49.540;11.932;2023-07-31T05:48:10;520.43;;;165.50;;
11037;SDS011;5572;49.540;11.932;2023-07-31T05:50:36;348.83;;;117.60;;
11037;SDS011;5572;49.540;11.932;2023-07-31T05:53:04;517.90;;;174.47;;
11037;SDS011;5572;49.540;11.932;2023-07-31T05:55:30;521.97;;;184.50;;
11037;SDS011;5572;49.540;11.932;2023-07-31T05:57:57;22.37;;;20.23;;
11037;SDS011;5572;49.540;11.932;2023-07-31T06:00:25;25.03;;;22.77;;
11037;SDS011;5572;49.540;11.932;2023-07-31T06:02:52;516.40;;;177.13;;
11037;SDS011;5572;49.540;11.932;2023-07-31T06:05:19;525.43;;;190.47;;
11037;SDS011;5572;49.540;11.932;2023-07-31T06:07:46;22.80;;;20.67;;
11037;SDS011;5572;49.540;11.932;2023-07-31T06:10:12;22.37;;;20.33;;
11037;SDS011;5572;49.540;11.932;2023-07-31T06:12:39;377.70;;;138.23;;
11037;SDS011;5572;49.540;11.932;2023-07-31T06:15:05;377.67;;;144.53;;
11037;SDS011;5572;49.540;11.932;2023-07-31T06:17:34;22.03;;;19.93;;
11037;SDS011;5572;49.540;11.932;2023-07-31T06:20:01;20.13;;;18.27;;
11037;SDS011;5572;49.540;11.932;2023-07-31T06:22:30;354.23;;;132.03;;
11037;SDS011;5572;49.540;11.932;2023-07-31T06:24:56;352.80;;;132.80;;
11037;SDS011;5572;49.540;11.932;2023-07-31T06:27:23;352.63;;;129.30;;
11037;SDS011;5572;49.540;11.932;2023-07-31T06:29:50;377.70;;;144.13;;
11037;SDS011;5572;49.540;11.932;2023-07-31T06:32:17;359.40;;;140.83;;
11037;SDS011;5572;49.540;11.932;2023-07-31T06:34:45;20.00;;;18.10;;
11037;SDS011;5572;49.540;11.932;2023-07-31T06:37:11;24.00;;;21.73;;
11037;SDS011;5572;49.540;11.932;2023-07-31T06:39:38;20.33;;;18.40;;
11037;SDS011;5572;49.540;11.932;2023-07-31T06:42:05;22.87;;;20.70;;
11037;SDS011;5572;49.540;11.932;2023-07-31T06:44:31;22.40;;;20.33;;
11037;SDS011;5572;49.540;11.932;2023-07-31T06:46:58;24.53;;;22.30;;
11037;SDS011;5572;49.540;11.932;2023-07-31T06:49:24;528.87;;;212.30;;
11037;SDS011;5572;49.540;11.932;2023-07-31T06:51:52;21.40;;;19.27;;
11037;SDS011;5572;49.540;11.932;2023-07-31T06:54:19;21.30;;;19.17;;
11037;SDS011;5572;49.540;11.932;2023-07-31T06:56:46;210.20;;;90.07;;
11037;SDS011;5572;49.540;11.932;2023-07-31T06:59:12;543.07;;;237.80;;
11037;SDS011;5572;49.540;11.932;2023-07-31T07:01:39;546.03;;;241.87;;
11037;SDS011;5572;49.540;11.932;2023-07-31T07:06:33;22.77;;;20.53;;
11037;SDS011;5572;49.540;11.932;2023-07-31T07:09:01;386.93;;;168.77;;
11037;SDS011;5572;49.540;11.932;2023-07-31T07:11:28;533.63;;;242.20;;
11037;SDS011;5572;49.540;11.932;2023-07-31T07:13:54;525.80;;;238.37;;
11037;SDS011;5572;49.540;11.932;2023-07-31T07:16:21;393.20;;;173.40;;
11037;SDS011;5572;49.540;11.932;2023-07-31T07:18:47;58.57;;;30.40;;
11037;SDS011;5572;49.540;11.932;2023-07-31T07:21:14;23.73;;;21.57;;
11037;SDS011;5572;49.540;11.932;2023-07-31T07:23:43;383.80;;;170.63;;
11037;SDS011;5572;49.540;11.932;2023-07-31T07:26:11;544.53;;;249.73;;
11037;SDS011;5572;49.540;11.932;2023-07-31T07:28:37;544.80;;;248.03;;
11037;SDS011;5572;49.540;11.932;2023-07-31T07:31:04;389.27;;;173.37;;
11037;SDS011;5572;49.540;11.932;2023-07-31T07:33:31;508.00;;;225.43;;
11037;SDS011;5572;49.540;11.932;2023-07-31T07:35:59;18.90;;;17.13;;
11037;SDS011;5572;49.540;11.932;2023-07-31T07:38:26;53.97;;;26.53;;
11037;SDS011;5572;49.540;11.932;2023-07-31T07:40:53;541.33;;;244.30;;
11037;SDS011;5572;49.540;11.932;2023-07-31T07:43:21;543.30;;;234.40;;
11037;SDS011;5572;49.540;11.932;2023-07-31T07:45:47;364.37;;;162.50;;
11037;SDS011;5572;49.540;11.932;2023-07-31T07:48:14;541.13;;;235.10;;
11037;SDS011;5572;49.540;11.932;2023-07-31T07:50:42;540.93;;;233.33;;
11037;SDS011;5572;49.540;11.932;2023-07-31T07:53:08;528.53;;;238.50;;
11037;SDS011;5572;49.540;11.932;2023-07-31T07:55:35;384.53;;;165.90;;
11037;SDS011;5572;49.540;11.932;2023-07-31T07:58:01;543.93;;;247.70;;
11037;SDS011;5572;49.540;11.932;2023-07-31T08:00:29;544.00;;;245.47;;
11037;SDS011;5572;49.540;11.932;2023-07-31T08:02:56;21.33;;;18.90;;
11037;SDS011;5572;49.540;11.932;2023-07-31T08:05:23;19.03;;;17.13;;
11037;SDS011;5572;49.540;11.932;2023-07-31T08:07:50;22.23;;;20.03;;
11037;SDS011;5572;49.540;11.932;2023-07-31T08:10:16;24.23;;;21.80;;
11037;SDS011;5572;49.540;11.932;2023-07-31T08:12:43;22.73;;;20.47;;
11037;SDS011;5572;49.540;11.932;2023-07-31T08:15:09;25.73;;;23.10;;
11037;SDS011;5572;49.540;11.932;2023-07-31T08:17:38;23.93;;;21.40;;
11037;SDS011;5572;49.540;11.932;2023-07-31T08:20:05;22.03;;;19.83;;
11037;SDS011;5572;49.540;11.932;2023-07-31T08:22:32;23.83;;;21.53;;
11037;SDS011;5572;49.540;11.932;2023-07-31T08:24:59;22.73;;;20.50;;
11037;SDS011;5572;49.540;11.932;2023-07-31T08:27:26;23.10;;;20.83;;
11037;SDS011;5572;49.540;11.932;2023-07-31T08:29:52;21.87;;;19.87;;
11037;SDS011;5572;49.540;11.932;2023-07-31T08:32:19;24.23;;;21.77;;
11037;SDS011;5572;49.540;11.932;2023-07-31T08:34:47;23.27;;;20.90;;
11037;SDS011;5572;49.540;11.932;2023-07-31T08:37:14;24.70;;;22.23;;
11037;SDS011;5572;49.540;11.932;2023-07-31T08:39:40;22.90;;;20.67;;
11037;SDS011;5572;49.540;11.932;2023-07-31T08:42:07;23.63;;;21.27;;
11037;SDS011;5572;49.540;11.932;2023-07-31T08:44:34;24.07;;;21.70;;
11037;SDS011;5572;49.540;11.932;2023-07-31T08:47:01;22.57;;;20.33;;
11037;SDS011;5572;49.540;11.932;2023-07-31T08:54:23;26.27;;;23.80;;
11037;SDS011;5572;49.540;11.932;2023-07-31T08:56:49;23.17;;;20.90;;
11037;SDS011;5572;49.540;11.932;2023-07-31T08:59:18;25.03;;;22.50;;
11037;SDS011;5572;49.540;11.932;2023-07-31T09:01:48;205.03;;;93.70;;
11037;SDS011;5572;49.540;11.932;2023-07-31T09:04:16;373.03;;;185.53;;
11037;SDS011;5572;49.540;11.932;2023-07-31T09:06:45;20.60;;;18.80;;
11037;SDS011;5572;49.540;11.932;2023-07-31T09:09:15;22.10;;;19.80;;
11037;SDS011;5572;49.540;11.932;2023-07-31T09:11:42;389.17;;;192.47;;
11037;SDS011;5572;49.540;11.932;2023-07-31T09:14:08;752.97;;;386.83;;
11037;SDS011;5572;49.540;11.932;2023-07-31T09:16:37;372.67;;;197.23;;
11037;SDS011;5572;49.540;11.932;2023-07-31T09:19:22;549.93;;;282.30;;
11037;SDS011;5572;49.540;11.932;2023-07-31T09:21:51;373.13;;;191.20;;
11037;SDS011;5572;49.540;11.932;2023-07-31T09:24:25;24.57;;;22.33;;
11037;SDS011;5572;49.540;11.932;2023-07-31T09:26:53;388.30;;;194.27;;
11037;SDS011;5572;49.540;11.932;2023-07-31T09:29:20;559.77;;;307.43;;
11037;SDS011;5572;49.540;11.932;2023-07-31T09:31:47;740.70;;;400.60;;
11037;SDS011;5572;49.540;11.932;2023-07-31T09:34:13;750.90;;;429.03;;
11037;SDS011;5572;49.540;11.932;2023-07-31T09:36:41;758.63;;;449.87;;
11037;SDS011;5572;49.540;11.932;2023-07-31T09:39:08;19.83;;;18.13;;
11037;SDS011;5572;49.540;11.932;2023-07-31T09:41:38;399.63;;;225.03;;
11037;SDS011;5572;49.540;11.932;2023-07-31T09:44:05;763.03;;;461.63;;
11037;SDS011;5572;49.540;11.932;2023-07-31T09:46:31;760.03;;;465.33;;
11037;SDS011;5572;49.540;11.932;2023-07-31T09:49:04;20.40;;;18.47;;
11037;SDS011;5572;49.540;11.932;2023-07-31T09:51:31;21.87;;;19.73;;
11037;SDS011;5572;49.540;11.932;2023-07-31T09:54:03;24.50;;;22.07;;
11037;SDS011;5572;49.540;11.932;2023-07-31T09:56:30;567.10;;;341.40;;
11037;SDS011;5572;49.540;11.932;2023-07-31T09:59:00;228.67;;;126.17;;
11037;SDS011;5572;49.540;11.932;2023-07-31T10:01:30;22.10;;;19.97;;
11037;SDS011;5572;49.540;11.932;2023-07-31T10:03:57;23.70;;;21.40;;
11037;SDS011;5572;49.540;11.932;2023-07-31T10:06:25;20.43;;;18.43;;
11037;SDS011;5572;49.540;11.932;2023-07-31T10:08:52;23.63;;;21.47;;
11037;SDS011;5572;49.540;11.932;2023-07-31T10:11:20;21.93;;;19.77;;
11037;SDS011;5572;49.540;11.932;2023-07-31T10:13:48;21.23;;;19.23;;
11037;SDS011;5572;49.540;11.932;2023-07-31T10:16:17;20.17;;;18.17;;
11037;SDS011;5572;49.540;11.932;2023-07-31T10:18:45;23.50;;;21.27;;
11037;SDS011;5572;49.540;11.932;2023-07-31T10:21:12;20.50;;;18.53;;
11037;SDS011;5572;49.540;11.932;2023-07-31T10:23:40;20.77;;;18.83;;
11037;SDS011;5572;49.540;11.932;2023-07-31T10:26:09;21.30;;;19.27;;
11037;SDS011;5572;49.540;11.932;2023-07-31T10:28:37;21.97;;;19.90;;
11037;SDS011;5572;49.540;11.932;2023-07-31T10:31:05;22.43;;;20.30;;
11037;SDS011;5572;49.540;11.932;2023-07-31T10:33:34;21.90;;;19.77;;
11037;SDS011;5572;49.540;11.932;2023-07-31T10:36:13;19.93;;;18.07;;
11037;SDS011;5572;49.540;11.932;2023-07-31T10:38:41;21.60;;;19.57;;
11037;SDS011;5572;49.540;11.932;2023-07-31T10:41:08;21.73;;;19.60;;
11037;SDS011;5572;49.540;11.932;2023-07-31T10:43:35;20.53;;;18.50;;
11037;SDS011;5572;49.540;11.932;2023-07-31T10:46:05;18.80;;;16.95;;
11037;SDS011;5572;49.540;11.932;2023-07-31T10:48:34;22.03;;;19.90;;
11037;SDS011;5572;49.540;11.932;2023-07-31T10:51:02;24.77;;;22.53;;
11037;SDS011;5572;49.540;11.932;2023-07-31T10:53:34;22.17;;;20.10;;
11037;SDS011;5572;49.540;11.932;2023-07-31T10:56:02;21.77;;;19.73;;
11037;SDS011;5572;49.540;11.932;2023-07-31T10:58:30;24.30;;;20.87;;
11037;SDS011;5572;49.540;11.932;2023-07-31T11:00:58;20.93;;;18.97;;
11037;SDS011;5572;49.540;11.932;2023-07-31T11:03:26;27.07;;;22.13;;
11037;SDS011;5572;49.540;11.932;2023-07-31T11:06:07;22.30;;;20.27;;
11037;SDS011;5572;49.540;11.932;2023-07-31T11:08:35;21.47;;;19.43;;
11037;SDS011;5572;49.540;11.932;2023-07-31T11:11:07;23.67;;;21.53;;
11037;SDS011;5572;49.540;11.932;2023-07-31T11:13:39;22.20;;;20.07;;
11037;SDS011;5572;49.540;11.932;2023-07-31T11:16:06;21.97;;;19.90;;
11037;SDS011;5572;49.540;11.932;2023-07-31T11:18:33;21.03;;;19.03;;
11037;SDS011;5572;49.540;11.932;2023-07-31T11:21:01;22.37;;;20.20;;
11037;SDS011;5572;49.540;11.932;2023-07-31T11:23:30;20.17;;;18.27;;
11037;SDS011;5572;49.540;11.932;2023-07-31T11:25:59;22.17;;;20.13;;
11037;SDS011;5572;49.540;11.932;2023-07-31T11:28:30;20.90;;;18.90;;
11037;SDS011;5572;49.540;11.932;2023-07-31T11:30:59;22.90;;;20.77;;
11037;SDS011;5572;49.540;11.932;2023-07-31T11:33:26;22.77;;;20.67;;
11037;SDS011;5572;49.540;11.932;2023-07-31T11:35:55;19.50;;;17.60;;
11037;SDS011;5572;49.540;11.932;2023-07-31T11:38:21;19.87;;;17.97;;
11037;SDS011;5572;49.540;11.932;2023-07-31T11:40:53;19.77;;;17.83;;
11037;SDS011;5572;49.540;11.932;2023-07-31T11:43:20;20.00;;;18.10;;
11037;SDS011;5572;49.540;11.932;2023-07-31T11:45:48;23.57;;;21.33;;
11037;SDS011;5572;49.540;11.932;2023-07-31T11:48:20;19.47;;;17.60;;
11037;SDS011;5572;49.540;11.932;2023-07-31T11:50:48;22.27;;;20.03;;
11037;SDS011;5572;49.540;11.932;2023-07-31T11:53:19;22.20;;;20.17;;
11037;SDS011;5572;49.540;11.932;2023-07-31T11:55:50;21.43;;;19.40;;
11037;SDS011;5572;49.540;11.932;2023-07-31T11:58:18;21.93;;;19.83;;
11037;SDS011;5572;49.540;11.932;2023-07-31T12:00:46;22.40;;;20.30;;
11037;SDS011;5572;49.540;11.932;2023-07-31T12:03:13;21.47;;;19.37;;
11037;SDS011;5572;49.540;11.932;2023-07-31T12:05:40;22.90;;;20.77;;
11037;SDS011;5572;49.540;11.932;2023-07-31T12:08:09;21.90;;;19.83;;
11037;SDS011;5572;49.540;11.932;2023-07-31T12:10:37;22.03;;;19.97;;
11037;SDS011;5572;49.540;11.932;2023-07-31T12:13:10;21.00;;;19.07;;
11037;SDS011;5572;49.540;11.932;2023-07-31T12:15:39;20.13;;;18.20;;
11037;SDS011;5572;49.540;11.932;2023-07-31T12:18:08;22.30;;;20.23;;
11037;SDS011;5572;49.540;11.932;2023-07-31T12:20:39;20.70;;;18.73;;
11037;SDS011;5572;49.540;11.932;2023-07-31T12:23:12;23.13;;;21.00;;
11037;SDS011;5572;49.540;11.932;2023-07-31T12:25:40;22.27;;;20.17;;
11037;SDS011;5572;49.540;11.932;2023-07-31T12:28:08;21.07;;;19.13;;
11037;SDS011;5572;49.540;11.932;2023-07-31T12:30:38;21.93;;;19.90;;
11037;SDS011;5572;49.540;11.932;2023-07-31T12:33:05;21.10;;;19.13;;
11037;SDS011;5572;49.540;11.932;2023-07-31T12:35:36;23.40;;;21.30;;
11037;SDS011;5572;49.540;11.932;2023-07-31T12:38:04;19.63;;;17.80;;
11037;SDS011;5572;49.540;11.932;2023-07-31T12:40:31;20.57;;;18.60;;
11037;SDS011;5572;49.540;11.932;2023-07-31T12:42:58;20.57;;;18.63;;
11037;SDS011;5572;49.540;11.932;2023-07-31T12:45:29;21.17;;;19.13;;
11037;SDS011;5572;49.540;11.932;2023-07-31T12:47:56;20.93;;;18.97;;
11037;SDS011;5572;49.540;11.932;2023-07-31T12:50:23;20.43;;;18.50;;
11037;SDS011;5572;49.540;11.932;2023-07-31T12:52:50;21.30;;;19.37;;
11037;SDS011;5572;49.540;11.932;2023-07-31T12:55:17;20.07;;;18.13;;
11037;SDS011;5572;49.540;11.932;2023-07-31T12:57:44;21.30;;;19.30;;
11037;SDS011;5572;49.540;11.932;2023-07-31T13:00:11;38.07;;;34.00;;
11037;SDS011;5572;49.540;11.932;2023-07-31T13:02:40;19.27;;;17.37;;
11037;SDS011;5572;49.540;11.932;2023-07-31T13:05:07;18.50;;;16.70;;
11037;SDS011;5572;49.540;11.932;2023-07-31T13:07:34;20.97;;;19.00;;
11037;SDS011;5572;49.540;11.932;2023-07-31T13:10:00;21.40;;;19.40;;
11037;SDS011;5572;49.540;11.932;2023-07-31T13:12:27;20.67;;;18.73;;
11037;SDS011;5572;49.540;11.932;2023-07-31T13:14:53;23.17;;;20.97;;
11037;SDS011;5572;49.540;11.932;2023-07-31T13:17:20;21.43;;;19.40;;
11037;SDS011;5572;49.540;11.932;2023-07-31T13:19:48;21.93;;;19.87;;
11037;SDS011;5572;49.540;11.932;2023-07-31T13:22:15;20.60;;;18.63;;
11037;SDS011;5572;49.540;11.932;2023-07-31T13:24:42;19.67;;;17.80;;
11037;SDS011;5572;49.540;11.932;2023-07-31T13:27:08;21.60;;;19.60;;
11037;SDS011;5572;49.540;11.932;2023-07-31T13:29:35;23.17;;;20.93;;
11037;SDS011;5572;49.540;11.932;2023-07-31T13:32:02;21.43;;;19.47;;
11037;SDS011;5572;49.540;11.932;2023-07-31T13:34:29;20.53;;;18.60;;
11037;SDS011;5572;49.540;11.932;2023-07-31T13:36:57;20.57;;;18.60;;
11037;SDS011;5572;49.540;11.932;2023-07-31T13:39:23;21.03;;;19.03;;
11037;SDS011;5572;49.540;11.932;2023-07-31T13:41:50;19.43;;;17.53;;
11037;SDS011;5572;49.540;11.932;2023-07-31T13:44:17;21.40;;;19.43;;
11037;SDS011;5572;49.540;11.932;2023-07-31T13:46:43;20.67;;;18.70;;
11037;SDS011;5572;49.540;11.932;2023-07-31T13:49:10;21.37;;;19.33;;
11037;SDS011;5572;49.540;11.932;2023-07-31T13:51:36;21.77;;;19.73;;
11037;SDS011;5572;49.540;11.932;2023-07-31T13:54:05;25.83;;;23.40;;
11037;SDS011;5572;49.540;11.932;2023-07-31T13:56:32;22.03;;;19.90;;
11037;SDS011;5572;49.540;11.932;2023-07-31T13:58:59;19.60;;;17.70;;
11037;SDS011;5572;49.540;11.932;2023-07-31T14:01:26;21.97;;;19.93;;
11037;SDS011;5572;49.540;11.932;2023-07-31T14:03:53;23.53;;;19.47;;
11037;SDS011;5572;49.540;11.932;2023-07-31T14:06:19;20.57;;;18.63;;
11037;SDS011;5572;49.540;11.932;2023-07-31T14:08:46;25.37;;;23.03;;
11037;SDS011;5572;49.540;11.932;2023-07-31T14:11:14;22.87;;;20.70;;
11037;SDS011;5572;49.540;11.932;2023-07-31T14:13:40;21.60;;;19.57;;
11037;SDS011;5572;49.540;11.932;2023-07-31T14:16:07;21.33;;;19.30;;
11037;SDS011;5572;49.540;11.932;2023-07-31T14:18:33;24.90;;;22.53;;
11037;SDS011;5572;49.540;11.932;2023-07-31T14:21:00;22.20;;;20.10;;
11037;SDS011;5572;49.540;11.932;2023-07-31T14:23:27;24.97;;;22.63;;
11037;SDS011;5572;49.540;11.932;2023-07-31T14:25:53;25.60;;;20.17;;
11037;SDS011;5572;49.540;11.932;2023-07-31T14:28:21;19.40;;;17.57;;
11037;SDS011;5572;49.540;11.932;2023-07-31T14:30:48;20.60;;;18.57;;